sensor_id;sensor_type;location;lat;lon;timestamp;pressure;altitude;pressure_sealevel;temperature;humidity
71974;BME280;59840;52.122;5.404;2023-05-02T00:00:49;102143.00;;;10.02;99.28
71974;BME280;59840;52.122;5.404;2023-05-02T00:03:16;102141.78;;;10.04;99.69
71974;BME280;59840;52.122;5.404;2023-05-02T00:05:43;102140.31;;;10.08;100.00
71974;BME280;59840;52.122;5.404;2023-05-02T00:08:10;102140.31;;;10.08;99.55
71974;BME280;59840;52.122;5.404;2023-05-02T00:10:37;102138.88;;;10.13;99.59
71974;BME280;59840;52.122;5.404;2023-05-02T00:13:04;102136.44;;;10.11;99.29
71974;BME280;59840;52.122;5.404;2023-05-02T00:15:31;102138.28;;;10.11;99.23
71974;BME280;59840;52.122;5.404;2023-05-02T00:17:57;102136.44;;;10.11;98.95
71974;BME280;59840;52.122;5.404;2023-05-02T00:20:24;102143.94;;;10.14;99.11
71974;BME280;59840;52.122;5.404;2023-05-02T00:22:50;102136.25;;;10.13;99.28
71974;BME280;59840;52.122;5.404;2023-05-02T00:25:17;102139.47;;;10.15;99.21
71974;BME280;59840;52.122;5.404;2023-05-02T00:27:43;102146.38;;;10.16;99.46
71974;BME280;59840;52.122;5.404;2023-05-02T00:30:12;102151.22;;;10.19;98.83
71974;BME280;59840;52.122;5.404;2023-05-02T00:32:39;102155.53;;;10.20;98.55
71974;BME280;59840;52.122;5.404;2023-05-02T00:35:07;102145.97;;;10.19;98.55
71974;BME280;59840;52.122;5.404;2023-05-02T00:37:34;102148.41;;;10.20;98.94
71974;BME280;59840;52.122;5.404;2023-05-02T00:40:01;102150.84;;;10.22;98.45
71974;BME280;59840;52.122;5.404;2023-05-02T00:42:28;102151.44;;;10.24;98.52
71974;BME280;59840;52.122;5.404;2023-05-02T00:44:59;102148.81;;;10.24;98.64
71974;BME280;59840;52.122;5.404;2023-05-02T00:47:26;102150.44;;;10.25;99.02
71974;BME280;59840;52.122;5.404;2023-05-02T00:49:52;102150.44;;;10.25;99.10
71974;BME280;59840;52.122;5.404;2023-05-02T00:52:19;102166.25;;;10.25;98.90
71974;BME280;59840;52.122;5.404;2023-05-02T00:54:46;102167.88;;;10.26;99.72
71974;BME280;59840;52.122;5.404;2023-05-02T00:57:12;102164.22;;;10.27;99.85
71974;BME280;59840;52.122;5.404;2023-05-02T00:59:39;102170.53;;;10.26;100.00
71974;BME280;59840;52.122;5.404;2023-05-02T01:02:31;102174.38;;;10.23;100.00
71974;BME280;59840;52.122;5.404;2023-05-02T01:05:38;102189.59;;;10.21;100.00
71974;BME280;59840;52.122;5.404;2023-05-02T01:08:23;102198.31;;;10.22;100.00
71974;BME280;59840;52.122;5.404;2023-05-02T01:13:37;102171.94;;;10.22;100.00
71974;BME280;59840;52.122;5.404;2023-05-02T01:16:06;102174.78;;;10.20;100.00
71974;BME280;59840;52.122;5.404;2023-05-02T01:18:37;102178.44;;;10.19;100.00
71974;BME280;59840;52.122;5.404;2023-05-02T01:21:07;102182.50;;;10.15;100.00
71974;BME280;59840;52.122;5.404;2023-05-02T01:26:33;102189.06;;;9.99;100.00
71974;BME280;59840;52.122;5.404;2023-05-02T01:29:06;102203.25;;;9.98;99.58
71974;BME280;59840;52.122;5.404;2023-05-02T01:31:35;102200.22;;;9.95;99.40
71974;BME280;59840;52.122;5.404;2023-05-02T01:34:04;102204.47;;;9.89;98.99
71974;BME280;59840;52.122;5.404;2023-05-02T01:36:33;102216.03;;;9.88;98.08
71974;BME280;59840;52.122;5.404;2023-05-02T01:39:02;102200.63;;;9.85;97.77
71974;BME280;59840;52.122;5.404;2023-05-02T01:41:31;102208.53;;;9.85;97.29
71974;BME280;59840;52.122;5.404;2023-05-02T01:44:01;102211.97;;;9.86;96.90
71974;BME280;59840;52.122;5.404;2023-05-02T01:46:37;102221.50;;;9.87;97.25
71974;BME280;59840;52.122;5.404;2023-05-02T01:49:06;102216.44;;;9.85;97.00
71974;BME280;59840;52.122;5.404;2023-05-02T01:51:35;102222.72;;;9.84;96.84
71974;BME280;59840;52.122;5.404;2023-05-02T01:54:04;102229.84;;;9.84;96.95
71974;BME280;59840;52.122;5.404;2023-05-02T01:56:34;102243.22;;;9.82;97.19
71974;BME280;59840;52.122;5.404;2023-05-02T01:59:05;102245.84;;;9.75;96.39
71974;BME280;59840;52.122;5.404;2023-05-02T02:01:38;102246.91;;;9.68;96.70
71974;BME280;59840;52.122;5.404;2023-05-02T02:04:08;102245.69;;;9.64;97.02
71974;BME280;59840;52.122;5.404;2023-05-02T02:06:35;102243.25;;;9.62;97.30
71974;BME280;59840;52.122;5.404;2023-05-02T02:09:01;102246.69;;;9.63;96.87
71974;BME280;59840;52.122;5.404;2023-05-02T02:11:52;102236.97;;;9.63;96.00
71974;BME280;59840;52.122;5.404;2023-05-02T02:14:30;102243.44;;;9.61;95.88
71974;BME280;59840;52.122;5.404;2023-05-02T02:17:00;102239.00;;;9.61;95.68
71974;BME280;59840;52.122;5.404;2023-05-02T02:19:28;102238.16;;;9.61;95.88
71974;BME280;59840;52.122;5.404;2023-05-02T02:21:57;102247.09;;;9.60;95.35
71974;BME280;59840;52.122;5.404;2023-05-02T02:24:24;102254.19;;;9.59;95.31
71974;BME280;59840;52.122;5.404;2023-05-02T02:26:52;102257.63;;;9.60;95.82
71974;BME280;59840;52.122;5.404;2023-05-02T02:29:18;102268.56;;;9.57;95.12
71974;BME280;59840;52.122;5.404;2023-05-02T02:31:45;102272.22;;;9.56;94.68
71974;BME280;59840;52.122;5.404;2023-05-02T02:34:11;102275.88;;;9.55;93.86
71974;BME280;59840;52.122;5.404;2023-05-02T02:36:44;102276.28;;;9.52;93.58
71974;BME280;59840;52.122;5.404;2023-05-02T02:42:13;102285.59;;;9.48;93.05
71974;BME280;59840;52.122;5.404;2023-05-02T02:53:08;102294.09;;;9.43;93.63
71974;BME280;59840;52.122;5.404;2023-05-02T03:01:16;102292.47;;;9.35;92.85
71974;BME280;59840;52.122;5.404;2023-05-02T03:03:46;102294.50;;;9.33;92.46
71974;BME280;59840;52.122;5.404;2023-05-02T03:06:15;102304.22;;;9.33;91.97
71974;BME280;59840;52.122;5.404;2023-05-02T03:08:43;102311.31;;;9.32;92.11
71974;BME280;59840;52.122;5.404;2023-05-02T03:11:10;102308.06;;;9.30;91.87
71974;BME280;59840;52.122;5.404;2023-05-02T03:13:36;102313.94;;;9.32;91.77
71974;BME280;59840;52.122;5.404;2023-05-02T03:18:57;102316.97;;;9.29;91.83
71974;BME280;59840;52.122;5.404;2023-05-02T03:21:23;102326.09;;;9.27;92.12
71974;BME280;59840;52.122;5.404;2023-05-02T03:23:50;102322.03;;;9.24;91.78
71974;BME280;59840;52.122;5.404;2023-05-02T03:26:16;102321.22;;;9.24;91.15
71974;BME280;59840;52.122;5.404;2023-05-02T03:28:43;102327.50;;;9.23;91.42
71974;BME280;59840;52.122;5.404;2023-05-02T03:31:12;102335.59;;;9.21;91.67
71974;BME280;59840;52.122;5.404;2023-05-02T03:33:42;102329.72;;;9.19;91.55
71974;BME280;59840;52.122;5.404;2023-05-02T03:36:09;102335.19;;;9.18;91.46
71974;BME280;59840;52.122;5.404;2023-05-02T03:38:36;102333.34;;;9.18;91.48
71974;BME280;59840;52.122;5.404;2023-05-02T03:41:03;102331.53;;;9.19;91.30
71974;BME280;59840;52.122;5.404;2023-05-02T03:43:29;102341.88;;;9.20;91.66
71974;BME280;59840;52.122;5.404;2023-05-02T03:45:56;102338.00;;;9.16;91.48
71974;BME280;59840;52.122;5.404;2023-05-02T03:48:23;102351.38;;;9.15;90.54
71974;BME280;59840;52.122;5.404;2023-05-02T03:50:49;102348.72;;;9.15;91.47
71974;BME280;59840;52.122;5.404;2023-05-02T03:53:16;102351.56;;;9.13;91.18
71974;BME280;59840;52.122;5.404;2023-05-02T03:55:43;102353.59;;;9.11;91.88
71974;BME280;59840;52.122;5.404;2023-05-02T03:58:09;102355.59;;;9.09;91.10
71974;BME280;59840;52.122;5.404;2023-05-02T04:00:36;102354.16;;;9.06;91.02
71974;BME280;59840;52.122;5.404;2023-05-02T04:03:03;102367.72;;;9.03;90.55
71974;BME280;59840;52.122;5.404;2023-05-02T04:05:30;102368.72;;;9.02;91.41
71974;BME280;59840;52.122;5.404;2023-05-02T04:07:57;102366.28;;;9.01;91.14
71974;BME280;59840;52.122;5.404;2023-05-02T04:10:23;102377.44;;;9.03;91.36
71974;BME280;59840;52.122;5.404;2023-05-02T04:12:50;102376.63;;;9.02;91.49
71974;BME280;59840;52.122;5.404;2023-05-02T04:15:16;102373.41;;;9.00;90.89
71974;BME280;59840;52.122;5.404;2023-05-02T04:17:43;102376.22;;;8.99;90.80
71974;BME280;59840;52.122;5.404;2023-05-02T04:20:10;102378.25;;;8.97;90.92
71974;BME280;59840;52.122;5.404;2023-05-02T04:22:36;102382.69;;;8.96;91.14
71974;BME280;59840;52.122;5.404;2023-05-02T04:25:05;102386.34;;;8.95;90.07
71974;BME280;59840;52.122;5.404;2023-05-02T04:27:32;102384.91;;;8.93;89.95
71974;BME280;59840;52.122;5.404;2023-05-02T04:29:59;102393.00;;;8.91;89.86
71974;BME280;59840;52.122;5.404;2023-05-02T04:32:26;102400.09;;;8.91;89.16
71974;BME280;59840;52.122;5.404;2023-05-02T04:34:53;102400.91;;;8.91;89.56
71974;BME280;59840;52.122;5.404;2023-05-02T04:37:20;102403.72;;;8.90;89.42
71974;BME280;59840;52.122;5.404;2023-05-02T04:39:46;102419.50;;;8.90;89.48
71974;BME280;59840;52.122;5.404;2023-05-02T04:42:13;102423.72;;;8.84;89.64
71974;BME280;59840;52.122;5.404;2023-05-02T04:44:39;102431.59;;;8.78;90.32
71974;BME280;59840;52.122;5.404;2023-05-02T04:47:06;102439.63;;;8.69;90.81
71974;BME280;59840;52.122;5.404;2023-05-02T04:49:33;102430.69;;;8.64;90.74
71974;BME280;59840;52.122;5.404;2023-05-02T04:51:59;102446.06;;;8.60;90.16
71974;BME280;59840;52.122;5.404;2023-05-02T04:54:26;102450.06;;;8.56;89.91
71974;BME280;59840;52.122;5.404;2023-05-02T04:56:53;102445.19;;;8.53;89.60
71974;BME280;59840;52.122;5.404;2023-05-02T04:59:19;102446.00;;;8.54;89.51
71974;BME280;59840;52.122;5.404;2023-05-02T05:01:46;102452.91;;;8.55;88.92
71974;BME280;59840;52.122;5.404;2023-05-02T05:04:12;102456.34;;;8.55;88.43
71974;BME280;59840;52.122;5.404;2023-05-02T05:06:39;102457.34;;;8.54;88.12
71974;BME280;59840;52.122;5.404;2023-05-02T05:09:06;102461.41;;;8.57;87.77
71974;BME280;59840;52.122;5.404;2023-05-02T05:11:33;102467.50;;;8.57;87.55
71974;BME280;59840;52.122;5.404;2023-05-02T05:13:59;102475.19;;;8.59;87.39
71974;BME280;59840;52.122;5.404;2023-05-02T05:16:26;102476.00;;;8.59;87.40
71974;BME280;59840;52.122;5.404;2023-05-02T05:18:52;102487.97;;;8.62;86.62
71974;BME280;59840;52.122;5.404;2023-05-02T05:21:19;102479.25;;;8.61;85.91
71974;BME280;59840;52.122;5.404;2023-05-02T05:23:46;102480.88;;;8.62;85.68
71974;BME280;59840;52.122;5.404;2023-05-02T05:26:14;102479.88;;;8.63;85.30
71974;BME280;59840;52.122;5.404;2023-05-02T05:28:41;102495.47;;;8.65;85.32
71974;BME280;59840;52.122;5.404;2023-05-02T05:31:13;102489.41;;;8.64;86.13
71974;BME280;59840;52.122;5.404;2023-05-02T05:33:42;102500.94;;;8.63;84.90
71974;BME280;59840;52.122;5.404;2023-05-02T05:36:12;102499.88;;;8.58;85.31
71974;BME280;59840;52.122;5.404;2023-05-02T05:38:40;102499.06;;;8.57;85.93
71974;BME280;59840;52.122;5.404;2023-05-02T05:41:06;102516.84;;;8.55;85.57
71974;BME280;59840;52.122;5.404;2023-05-02T05:43:33;102511.97;;;8.52;85.91
71974;BME280;59840;52.122;5.404;2023-05-02T05:46:03;102526.75;;;8.53;84.30
71974;BME280;59840;52.122;5.404;2023-05-02T05:48:30;102539.03;;;8.46;82.92
71974;BME280;59840;52.122;5.404;2023-05-02T05:50:56;102529.06;;;8.42;83.34
71974;BME280;59840;52.122;5.404;2023-05-02T05:53:23;102529.88;;;8.42;82.74
71974;BME280;59840;52.122;5.404;2023-05-02T05:55:49;102537.75;;;8.42;83.63
71974;BME280;59840;52.122;5.404;2023-05-02T05:58:16;102544.84;;;8.42;82.80
71974;BME280;59840;52.122;5.404;2023-05-02T06:00:42;102545.84;;;8.40;81.89
71974;BME280;59840;52.122;5.404;2023-05-02T06:03:09;102553.19;;;8.45;82.26
71974;BME280;59840;52.122;5.404;2023-05-02T06:05:36;102551.34;;;8.46;81.53
71974;BME280;59840;52.122;5.404;2023-05-02T06:08:03;102556.44;;;8.47;81.49
71974;BME280;59840;52.122;5.404;2023-05-02T06:10:30;102556.81;;;8.44;81.77
71974;BME280;59840;52.122;5.404;2023-05-02T06:12:56;102552.81;;;8.48;82.41
71974;BME280;59840;52.122;5.404;2023-05-02T06:15:23;102566.22;;;8.53;81.84
71974;BME280;59840;52.122;5.404;2023-05-02T06:17:50;102569.91;;;8.59;81.10
71974;BME280;59840;52.122;5.404;2023-05-02T06:20:17;102577.25;;;8.63;81.02
71974;BME280;59840;52.122;5.404;2023-05-02T06:22:44;102578.25;;;8.62;81.30
71974;BME280;59840;52.122;5.404;2023-05-02T06:25:10;102574.47;;;8.71;81.18
71974;BME280;59840;52.122;5.404;2023-05-02T06:27:37;102583.66;;;8.82;80.80
71974;BME280;59840;52.122;5.404;2023-05-02T06:30:04;102587.75;;;8.85;80.07
71974;BME280;59840;52.122;5.404;2023-05-02T06:32:31;102590.81;;;8.88;80.40
71974;BME280;59840;52.122;5.404;2023-05-02T06:34:58;102585.09;;;8.85;78.80
71974;BME280;59840;52.122;5.404;2023-05-02T06:37:24;102585.75;;;8.87;77.77
71974;BME280;59840;52.122;5.404;2023-05-02T06:39:51;102592.88;;;8.93;77.88
71974;BME280;59840;52.122;5.404;2023-05-02T06:42:17;102601.16;;;8.90;78.09
71974;BME280;59840;52.122;5.404;2023-05-02T06:44:44;102604.78;;;8.89;77.11
71974;BME280;59840;52.122;5.404;2023-05-02T06:47:10;102607.59;;;8.87;77.83
71974;BME280;59840;52.122;5.404;2023-05-02T06:49:37;102618.13;;;8.87;78.42
71974;BME280;59840;52.122;5.404;2023-05-02T06:52:04;102624.66;;;8.91;78.91
71974;BME280;59840;52.122;5.404;2023-05-02T06:54:30;102624.03;;;8.89;78.32
71974;BME280;59840;52.122;5.404;2023-05-02T06:56:58;102629.22;;;8.83;78.52
71974;BME280;59840;52.122;5.404;2023-05-02T06:59:24;102628.59;;;8.81;79.00
71974;BME280;59840;52.122;5.404;2023-05-02T07:01:51;102646.78;;;8.76;79.24
71974;BME280;59840;52.122;5.404;2023-05-02T07:04:17;102636.44;;;8.74;78.09
71974;BME280;59840;52.122;5.404;2023-05-02T07:06:45;102651.78;;;8.70;79.20
71974;BME280;59840;52.122;5.404;2023-05-02T07:09:12;102657.41;;;8.67;80.07
71974;BME280;59840;52.122;5.404;2023-05-02T07:11:38;102659.03;;;8.68;80.27
71974;BME280;59840;52.122;5.404;2023-05-02T07:14:05;102669.38;;;8.70;79.42
71974;BME280;59840;52.122;5.404;2023-05-02T07:16:31;102666.19;;;8.74;81.06
71974;BME280;59840;52.122;5.404;2023-05-02T07:18:58;102663.19;;;8.78;80.05
71974;BME280;59840;52.122;5.404;2023-05-02T07:21:25;102666.34;;;8.88;80.27
71974;BME280;59840;52.122;5.404;2023-05-02T07:23:51;102677.44;;;8.83;80.89
71974;BME280;59840;52.122;5.404;2023-05-02T07:26:20;102689.25;;;8.72;79.42
71974;BME280;59840;52.122;5.404;2023-05-02T07:28:48;102686.94;;;8.63;79.20
71974;BME280;59840;52.122;5.404;2023-05-02T07:31:14;102684.94;;;8.65;78.90
71974;BME280;59840;52.122;5.404;2023-05-02T07:33:44;102692.88;;;8.71;78.86
71974;BME280;59840;52.122;5.404;2023-05-02T07:36:10;102690.50;;;8.77;78.25
71974;BME280;59840;52.122;5.404;2023-05-02T07:38:37;102693.16;;;8.77;78.03
71974;BME280;59840;52.122;5.404;2023-05-02T07:41:03;102686.31;;;8.82;78.59
71974;BME280;59840;52.122;5.404;2023-05-02T07:43:30;102692.03;;;8.86;78.49
71974;BME280;59840;52.122;5.404;2023-05-02T07:45:56;102700.13;;;8.84;78.34
71974;BME280;59840;52.122;5.404;2023-05-02T07:48:23;102700.13;;;8.84;77.79
71974;BME280;59840;52.122;5.404;2023-05-02T07:50:53;102697.03;;;8.81;78.62
71974;BME280;59840;52.122;5.404;2023-05-02T07:53:19;102705.44;;;8.91;77.67
71974;BME280;59840;52.122;5.404;2023-05-02T07:55:46;102700.63;;;8.94;77.70
71974;BME280;59840;52.122;5.404;2023-05-02T07:58:12;102699.06;;;9.00;77.05
71974;BME280;59840;52.122;5.404;2023-05-02T08:00:39;102704.56;;;9.05;75.81
71974;BME280;59840;52.122;5.404;2023-05-02T08:03:05;102711.19;;;9.01;75.47
71974;BME280;59840;52.122;5.404;2023-05-02T08:05:33;102715.25;;;8.97;74.97
71974;BME280;59840;52.122;5.404;2023-05-02T08:07:59;102710.34;;;8.94;74.84
71974;BME280;59840;52.122;5.404;2023-05-02T08:10:27;102720.00;;;8.87;76.30
71974;BME280;59840;52.122;5.404;2023-05-02T08:12:54;102717.47;;;8.79;74.84
71974;BME280;59840;52.122;5.404;2023-05-02T08:15:20;102721.91;;;8.78;75.53
71974;BME280;59840;52.122;5.404;2023-05-02T08:17:47;102723.25;;;8.89;76.68
71974;BME280;59840;52.122;5.404;2023-05-02T08:20:13;102726.78;;;8.96;76.74
71974;BME280;59840;52.122;5.404;2023-05-02T08:22:40;102742.31;;;9.12;75.34
71974;BME280;59840;52.122;5.404;2023-05-02T08:25:07;102735.41;;;9.11;74.59
71974;BME280;59840;52.122;5.404;2023-05-02T08:27:33;102737.19;;;9.25;75.52
71974;BME280;59840;52.122;5.404;2023-05-02T08:30:00;102745.09;;;9.25;74.83
71974;BME280;59840;52.122;5.404;2023-05-02T08:32:27;102744.09;;;9.26;74.29
71974;BME280;59840;52.122;5.404;2023-05-02T08:34:55;102745.19;;;9.38;71.34
71974;BME280;59840;52.122;5.404;2023-05-02T08:37:24;102759.13;;;9.32;69.80
71974;BME280;59840;52.122;5.404;2023-05-02T08:39:51;102755.63;;;9.25;69.04
71974;BME280;59840;52.122;5.404;2023-05-02T08:42:18;102763.81;;;9.37;70.20
71974;BME280;59840;52.122;5.404;2023-05-02T08:44:47;102755.09;;;9.58;71.62
71974;BME280;59840;52.122;5.404;2023-05-02T08:47:14;102758.88;;;9.77;68.16
71974;BME280;59840;52.122;5.404;2023-05-02T08:49:41;102765.34;;;9.74;69.47
71974;BME280;59840;52.122;5.404;2023-05-02T08:52:08;102767.66;;;9.84;68.48
71974;BME280;59840;52.122;5.404;2023-05-02T08:54:37;102763.91;;;9.99;66.65
71974;BME280;59840;52.122;5.404;2023-05-02T08:57:04;102761.53;;;10.04;66.38
71974;BME280;59840;52.122;5.404;2023-05-02T08:59:32;102766.94;;;9.96;66.69
71974;BME280;59840;52.122;5.404;2023-05-02T09:02:05;102774.66;;;9.98;66.53
71974;BME280;59840;52.122;5.404;2023-05-02T09:04:40;102763.94;;;10.06;65.66
71974;BME280;59840;52.122;5.404;2023-05-02T09:07:08;102771.47;;;10.09;64.39
71974;BME280;59840;52.122;5.404;2023-05-02T09:09:36;102780.16;;;10.31;65.41
71974;BME280;59840;52.122;5.404;2023-05-02T09:12:03;102768.66;;;10.45;63.51
71974;BME280;59840;52.122;5.404;2023-05-02T09:14:29;102777.03;;;10.55;62.70
71974;BME280;59840;52.122;5.404;2023-05-02T09:17:00;102780.41;;;10.43;63.45
71974;BME280;59840;52.122;5.404;2023-05-02T09:19:26;102777.38;;;10.39;61.65
71974;BME280;59840;52.122;5.404;2023-05-02T09:21:59;102778.31;;;10.25;61.59
71974;BME280;59840;52.122;5.404;2023-05-02T09:24:26;102790.44;;;10.19;59.48
71974;BME280;59840;52.122;5.404;2023-05-02T09:29:26;102788.34;;;10.15;62.22
71974;BME280;59840;52.122;5.404;2023-05-02T09:31:53;102783.66;;;10.38;61.73
71974;BME280;59840;52.122;5.404;2023-05-02T09:34:22;102792.97;;;10.40;60.31
71974;BME280;59840;52.122;5.404;2023-05-02T09:36:50;102789.75;;;10.45;58.19
71974;BME280;59840;52.122;5.404;2023-05-02T09:39:23;102802.81;;;10.53;57.61
71974;BME280;59840;52.122;5.404;2023-05-02T09:41:51;102798.72;;;10.51;58.60
71974;BME280;59840;52.122;5.404;2023-05-02T09:44:21;102805.75;;;10.71;59.84
71974;BME280;59840;52.122;5.404;2023-05-02T09:46:53;102800.50;;;10.85;58.47
71974;BME280;59840;52.122;5.404;2023-05-02T09:49:40;102804.44;;;11.02;57.63
71974;BME280;59840;52.122;5.404;2023-05-02T09:52:13;102813.53;;;10.93;55.28
71974;BME280;59840;52.122;5.404;2023-05-02T09:54:41;102811.03;;;10.78;57.46
71974;BME280;59840;52.122;5.404;2023-05-02T09:57:07;102807.38;;;10.72;57.86
71974;BME280;59840;52.122;5.404;2023-05-02T09:59:35;102814.28;;;10.73;56.02
71974;BME280;59840;52.122;5.404;2023-05-02T10:02:03;102813.44;;;10.66;54.46
71974;BME280;59840;52.122;5.404;2023-05-02T10:04:32;102801.75;;;10.89;60.18
71974;BME280;59840;52.122;5.404;2023-05-02T10:07:01;102799.38;;;11.07;57.01
71974;BME280;59840;52.122;5.404;2023-05-02T10:09:29;102816.66;;;11.23;58.45
71974;BME280;59840;52.122;5.404;2023-05-02T10:12:01;102810.28;;;10.91;55.06
71974;BME280;59840;52.122;5.404;2023-05-02T10:14:39;102805.63;;;10.52;55.30
71974;BME280;59840;52.122;5.404;2023-05-02T10:17:12;102817.72;;;10.33;56.87
71974;BME280;59840;52.122;5.404;2023-05-02T10:19:56;102828.53;;;10.38;57.08
71974;BME280;59840;52.122;5.404;2023-05-02T10:22:26;102831.53;;;10.76;59.38
71974;BME280;59840;52.122;5.404;2023-05-02T10:24:53;102839.81;;;11.21;55.42
71974;BME280;59840;52.122;5.404;2023-05-02T10:27:23;102833.53;;;11.22;58.73
71974;BME280;59840;52.122;5.404;2023-05-02T10:29:50;102829.84;;;11.16;53.80
71974;BME280;59840;52.122;5.404;2023-05-02T10:32:17;102833.31;;;11.17;55.81
71974;BME280;59840;52.122;5.404;2023-05-02T10:34:45;102835.75;;;11.05;57.79
71974;BME280;59840;52.122;5.404;2023-05-02T10:37:11;102847.84;;;10.86;54.77
71974;BME280;59840;52.122;5.404;2023-05-02T10:39:38;102844.09;;;10.67;55.37
71974;BME280;59840;52.122;5.404;2023-05-02T10:42:05;102833.00;;;10.85;56.36
71974;BME280;59840;52.122;5.404;2023-05-02T10:44:40;102840.19;;;10.98;55.77
71974;BME280;59840;52.122;5.404;2023-05-02T10:49:55;102854.91;;;10.72;54.68
71974;BME280;59840;52.122;5.404;2023-05-02T10:55:20;102838.16;;;10.59;56.05
71974;BME280;59840;52.122;5.404;2023-05-02T11:00:25;102840.00;;;11.13;52.68
71974;BME280;59840;52.122;5.404;2023-05-02T11:02:52;102844.28;;;11.14;52.90
71974;BME280;59840;52.122;5.404;2023-05-02T11:05:21;102845.34;;;11.26;53.19
71974;BME280;59840;52.122;5.404;2023-05-02T11:07:48;102849.84;;;11.32;53.50
71974;BME280;59840;52.122;5.404;2023-05-02T11:15:13;102858.63;;;10.91;57.43
71974;BME280;59840;52.122;5.404;2023-05-02T11:20:24;102853.94;;;10.87;55.82
71974;BME280;59840;52.122;5.404;2023-05-02T11:22:51;102855.97;;;10.85;52.61
71974;BME280;59840;52.122;5.404;2023-05-02T11:25:29;102850.06;;;10.83;57.02
71974;BME280;59840;52.122;5.404;2023-05-02T11:27:56;102852.16;;;10.94;55.69
71974;BME280;59840;52.122;5.404;2023-05-02T11:30:43;102862.16;;;11.05;55.92
71974;BME280;59840;52.122;5.404;2023-05-02T11:33:11;102873.75;;;11.17;54.01
71974;BME280;59840;52.122;5.404;2023-05-02T11:35:41;102872.13;;;11.16;54.37
71974;BME280;59840;52.122;5.404;2023-05-02T11:38:12;102871.34;;;11.22;54.34
71974;BME280;59840;52.122;5.404;2023-05-02T11:40:39;102874.78;;;11.16;53.95
71974;BME280;59840;52.122;5.404;2023-05-02T11:43:14;102857.47;;;11.00;54.02
71974;BME280;59840;52.122;5.404;2023-05-02T11:45:41;102863.84;;;10.78;54.90
71974;BME280;59840;52.122;5.404;2023-05-02T11:48:11;102870.91;;;10.64;54.82
71974;BME280;59840;52.122;5.404;2023-05-02T11:50:49;102868.69;;;10.74;54.66
71974;BME280;59840;52.122;5.404;2023-05-02T11:53:18;102879.00;;;11.04;55.03
71974;BME280;59840;52.122;5.404;2023-05-02T11:55:53;102873.59;;;11.25;55.54
71974;BME280;59840;52.122;5.404;2023-05-02T11:58:24;102880.53;;;10.85;55.31
71974;BME280;59840;52.122;5.404;2023-05-02T12:00:52;102871.56;;;10.80;56.06
71974;BME280;59840;52.122;5.404;2023-05-02T12:05:50;102891.50;;;10.82;57.06
71974;BME280;59840;52.122;5.404;2023-05-02T12:08:21;102884.97;;;10.78;55.23
71974;BME280;59840;52.122;5.404;2023-05-02T12:10:50;102886.25;;;10.89;54.95
71974;BME280;59840;52.122;5.404;2023-05-02T12:13:18;102888.72;;;10.97;54.43
71974;BME280;59840;52.122;5.404;2023-05-02T12:15:46;102884.72;;;11.07;55.94
71974;BME280;59840;52.122;5.404;2023-05-02T12:18:13;102892.47;;;11.22;55.39
71974;BME280;59840;52.122;5.404;2023-05-02T12:20:41;102906.16;;;11.32;55.77
71974;BME280;59840;52.122;5.404;2023-05-02T12:23:08;102909.94;;;11.17;56.81
71974;BME280;59840;52.122;5.404;2023-05-02T12:25:39;102912.16;;;11.13;56.64
71974;BME280;59840;52.122;5.404;2023-05-02T12:28:07;102904.63;;;11.10;56.24
71974;BME280;59840;52.122;5.404;2023-05-02T12:30:35;102906.69;;;11.15;55.00
71974;BME280;59840;52.122;5.404;2023-05-02T12:33:04;102907.78;;;10.86;54.38
71974;BME280;59840;52.122;5.404;2023-05-02T12:35:32;102924.78;;;10.77;54.47
71974;BME280;59840;52.122;5.404;2023-05-02T12:38:14;102918.09;;;10.81;56.96
71974;BME280;59840;52.122;5.404;2023-05-02T12:40:49;102917.22;;;11.01;54.92
71974;BME280;59840;52.122;5.404;2023-05-02T12:43:16;102926.78;;;10.74;53.93
71974;BME280;59840;52.122;5.404;2023-05-02T12:45:43;102918.28;;;10.79;54.78
71974;BME280;59840;52.122;5.404;2023-05-02T12:48:17;102928.50;;;10.89;53.22
71974;BME280;59840;52.122;5.404;2023-05-02T12:50:44;102931.91;;;10.83;53.61
71974;BME280;59840;52.122;5.404;2023-05-02T12:53:11;102938.69;;;10.92;53.89
71974;BME280;59840;52.122;5.404;2023-05-02T12:55:37;102934.19;;;10.86;52.51
71974;BME280;59840;52.122;5.404;2023-05-02T12:58:06;102934.94;;;10.80;53.96
71974;BME280;59840;52.122;5.404;2023-05-02T13:00:35;102933.75;;;10.82;53.63
71974;BME280;59840;52.122;5.404;2023-05-02T13:03:04;102929.38;;;10.96;53.70
71974;BME280;59840;52.122;5.404;2023-05-02T13:05:31;102934.69;;;11.02;54.50
71974;BME280;59840;52.122;5.404;2023-05-02T13:07:58;102929.41;;;11.09;55.19
71974;BME280;59840;52.122;5.404;2023-05-02T13:10:25;102927.78;;;11.01;52.50
71974;BME280;59840;52.122;5.404;2023-05-02T13:12:52;102925.38;;;11.06;54.94
71974;BME280;59840;52.122;5.404;2023-05-02T13:15:19;102920.09;;;11.13;54.07
71974;BME280;59840;52.122;5.404;2023-05-02T13:17:45;102916.00;;;11.11;54.89
71974;BME280;59840;52.122;5.404;2023-05-02T13:20:13;102922.28;;;11.03;53.19
71974;BME280;59840;52.122;5.404;2023-05-02T13:22:40;102919.56;;;10.90;55.52
71974;BME280;59840;52.122;5.404;2023-05-02T13:25:07;102929.22;;;11.04;55.34
71974;BME280;59840;52.122;5.404;2023-05-02T13:27:34;102932.66;;;11.04;52.42
71974;BME280;59840;52.122;5.404;2023-05-02T13:30:00;102939.78;;;11.04;53.01
71974;BME280;59840;52.122;5.404;2023-05-02T13:32:31;102944.06;;;11.05;53.77
71974;BME280;59840;52.122;5.404;2023-05-02T13:34:58;102943.22;;;11.04;54.76
71974;BME280;59840;52.122;5.404;2023-05-02T13:37:24;102935.88;;;11.00;53.31
71974;BME280;59840;52.122;5.404;2023-05-02T13:39:52;102937.75;;;11.06;54.85
71974;BME280;59840;52.122;5.404;2023-05-02T13:42:18;102942.56;;;10.96;53.49
71974;BME280;59840;52.122;5.404;2023-05-02T13:44:45;102947.44;;;10.92;52.89
71974;BME280;59840;52.122;5.404;2023-05-02T13:47:12;102929.66;;;10.80;53.15